Time;durP1;ratioP1;P1;durP2;ratioP2;P2;SDS_P1;SDS_P2;PMS_P1;PMS_P2;Temp;Humidity;BMP_temperature;BMP_pressure;BME280_temperature;BME280_humidity;BME280_pressure;Samples;Min_cycle;Max_cycle;Signal;HPM_P1;HPM_P2
2023/05/14 00:02:08;;;;;;;;;;;;;;;9.10;65.19;97082.22;5096622;28;19920;-67
2023/05/14 00:04:34;;;;;;;;;;;;;;;9.13;66.06;97072.63;5096413;28;20467;-68
2023/05/14 00:07:02;;;;;;;;;;;;;;;9.15;66.72;97068.22;5096372;28;20285;-69
2023/05/14 00:09:30;;;;;;;;;;;;;;;9.07;66.02;97066.66;5096400;28;19924;-68
2023/05/14 00:11:57;;;;;;;;;;;;;;;9.04;65.84;97071.94;5096660;28;20001;-69
2023/05/14 00:14:25;;;;;;;;;;;;;;;9.13;66.08;97065.66;5096396;28;19927;-67
2023/05/14 00:16:52;;;;;;;;;;;;;;;9.16;66.69;97069.94;5096382;28;19923;-66
2023/05/14 00:19:20;;;;;;;;;;;;;;;9.15;67.27;97061.22;5096286;28;19920;-69
2023/05/14 00:21:48;;;;;;;;;;;;;;;9.25;68.06;97061.88;5096238;28;19950;-68
2023/05/14 00:24:15;;;;;;;;;;;;;;;9.23;68.07;97064.53;5096007;28;20011;-69
2023/05/14 00:26:42;;;;;;;;;;;;;;;9.22;66.86;97065.41;5095908;28;19934;-68
2023/05/14 00:29:08;;;;;;;;;;;;;;;9.26;66.97;97063.59;5096003;28;19982;-69
2023/05/14 00:31:35;;;;;;;;;;;;;;;9.19;65.86;97060.28;5096049;28;19920;-69
2023/05/14 00:34:02;;;;;;;;;;;;;;;9.13;64.63;97055.22;5096021;28;19920;-66
2023/05/14 00:36:31;;;;;;;;;;;;;;;9.09;65.73;97046.59;5095952;28;20007;-69
2023/05/14 00:38:58;;;;;;;;;;;;;;;9.17;65.93;97045.53;5095730;28;19920;-67
2023/05/14 00:41:24;;;;;;;;;;;;;;;9.19;66.89;97048.97;5095852;28;19977;-67
2023/05/14 00:43:51;;;;;;;;;;;;;;;9.13;66.44;97054.34;5095736;28;19920;-67
2023/05/14 00:46:18;;;;;;;;;;;;;;;9.14;65.84;97049.09;5095663;28;20377;-67
2023/05/14 00:48:45;;;;;;;;;;;;;;;9.18;66.82;97060.31;5095436;28;19920;-69
2023/05/14 00:51:12;;;;;;;;;;;;;;;9.21;67.69;97055.00;5095623;28;20003;-69
2023/05/14 00:53:41;;;;;;;;;;;;;;;9.24;66.05;97052.31;5095886;28;19998;-67
2023/05/14 00:56:08;;;;;;;;;;;;;;;9.20;66.19;97048.06;5095522;28;20329;-66
2023/05/14 00:58:35;;;;;;;;;;;;;;;9.22;67.03;97044.53;5095474;28;19975;-67
2023/05/14 01:01:02;;;;;;;;;;;;;;;9.25;67.15;97053.19;5095211;28;19920;-68
2023/05/14 01:03:30;;;;;;;;;;;;;;;9.15;66.92;97045.56;5095414;28;19974;-67
2023/05/14 01:06:00;;;;;;;;;;;;;;;9.11;66.34;97049.16;5095388;28;19920;-69
2023/05/14 01:08:32;;;;;;;;;;;;;;;9.10;66.76;97044.84;5095504;28;19920;-67
2023/05/14 01:11:04;;;;;;;;;;;;;;;9.09;67.31;97032.66;5095251;28;19926;-67
2023/05/14 01:13:37;;;;;;;;;;;;;;;8.99;66.97;97032.03;5095155;28;20332;-68
2023/05/14 01:16:04;;;;;;;;;;;;;;;8.94;67.62;97036.53;5095067;28;20382;-69
2023/05/14 01:18:32;;;;;;;;;;;;;;;8.88;66.75;97034.88;5095084;28;19923;-67
2023/05/14 01:20:59;;;;;;;;;;;;;;;8.88;66.85;97028.84;5094973;28;19973;-67
2023/05/14 01:23:27;;;;;;;;;;;;;;;8.84;66.75;97028.91;5095018;28;19927;-69
2023/05/14 01:25:54;;;;;;;;;;;;;;;8.80;66.79;97018.56;5094891;28;20358;-68
2023/05/14 01:28:27;;;;;;;;;;;;;;;8.81;67.19;97012.44;5094924;28;20369;-69
2023/05/14 01:30:57;;;;;;;;;;;;;;;8.80;66.94;97010.75;5094775;28;19949;-69
2023/05/14 01:33:26;;;;;;;;;;;;;;;8.73;66.39;97010.03;5094778;28;19977;-69
2023/05/14 01:35:53;;;;;;;;;;;;;;;8.70;67.63;97012.72;5094771;28;19924;-66
2023/05/14 01:38:22;;;;;;;;;;;;;;;8.61;68.58;97013.75;5094728;28;20362;-67
2023/05/14 01:40:51;;;;;;;;;;;;;;;8.57;68.79;97004.31;5094468;28;19926;-69
2023/05/14 01:43:18;;;;;;;;;;;;;;;8.55;68.50;97004.34;5094575;28;19966;-68
2023/05/14 01:45:45;;;;;;;;;;;;;;;8.57;68.13;97004.31;5094503;28;19928;-66
2023/05/14 01:48:13;;;;;;;;;;;;;;;8.56;68.93;97002.59;5094381;28;19920;-67
2023/05/14 01:50:40;;;;;;;;;;;;;;;8.58;69.19;97004.25;5094397;28;20010;-67
2023/05/14 01:53:06;;;;;;;;;;;;;;;8.55;68.81;97006.94;5094343;28;19919;-68
2023/05/14 01:55:33;;;;;;;;;;;;;;;8.57;68.79;97012.13;5094410;28;20373;-69
2023/05/14 01:58:02;;;;;;;;;;;;;;;8.57;68.14;97004.31;5094315;28;19975;-68
2023/05/14 02:00:29;;;;;;;;;;;;;;;8.56;68.88;97000.00;5094176;28;19924;-69
2023/05/14 02:02:56;;;;;;;;;;;;;;;8.46;67.55;96997.53;5094289;28;19942;-66
2023/05/14 02:05:22;;;;;;;;;;;;;;;8.50;67.95;97000.94;5094022;28;20377;-68
2023/05/14 02:07:50;;;;;;;;;;;;;;;8.49;68.70;96995.78;5094113;28;20352;-67
2023/05/14 02:10:17;;;;;;;;;;;;;;;8.49;69.51;97001.81;5094408;28;19920;-69
2023/05/14 02:12:44;;;;;;;;;;;;;;;8.50;69.55;96987.06;5093806;28;20010;-69
2023/05/14 02:15:13;;;;;;;;;;;;;;;8.49;69.58;96994.00;5093828;28;19920;-69
2023/05/14 02:17:40;;;;;;;;;;;;;;;8.41;69.22;96991.59;5093934;28;20419;-67
2023/05/14 02:20:09;;;;;;;;;;;;;;;8.41;68.80;96988.13;5094017;28;20031;-67
2023/05/14 02:22:36;;;;;;;;;;;;;;;8.40;69.23;96995.06;5093952;28;20332;-69
2023/05/14 02:25:03;;;;;;;;;;;;;;;8.33;69.15;96986.53;5093874;28;19927;-67
2023/05/14 02:27:30;;;;;;;;;;;;;;;8.33;69.59;96991.75;5093804;28;20352;-66
2023/05/14 02:29:59;;;;;;;;;;;;;;;8.32;69.45;96997.88;5093883;28;19924;-68
2023/05/14 02:32:27;;;;;;;;;;;;;;;8.27;71.20;97004.03;5093720;28;19926;-68
2023/05/14 02:34:55;;;;;;;;;;;;;;;8.29;70.84;97004.88;5093726;28;19927;-68
2023/05/14 02:37:22;;;;;;;;;;;;;;;8.31;70.73;97014.38;5093743;28;19978;-68
2023/05/14 02:39:49;;;;;;;;;;;;;;;8.38;70.72;97009.03;5093699;28;19938;-69
2023/05/14 02:42:16;;;;;;;;;;;;;;;8.30;71.21;97006.59;5093607;28;20297;-68
2023/05/14 02:44:43;;;;;;;;;;;;;;;8.21;70.91;97015.47;5093525;28;20385;-66
2023/05/14 02:47:10;;;;;;;;;;;;;;;8.25;72.05;97009.28;5093255;28;19920;-68
2023/05/14 02:49:39;;;;;;;;;;;;;;;8.27;71.37;97004.03;5093652;28;20281;-67
2023/05/14 02:52:06;;;;;;;;;;;;;;;8.22;70.86;97002.41;5093632;28;19923;-68
2023/05/14 02:54:32;;;;;;;;;;;;;;;8.22;71.56;97014.59;5093548;28;19924;-69
2023/05/14 02:56:59;;;;;;;;;;;;;;;8.24;70.83;97018.00;5093465;28;19930;-68
2023/05/14 02:59:27;;;;;;;;;;;;;;;8.22;72.37;97010.22;5093475;28;20010;-70
2023/05/14 03:01:54;;;;;;;;;;;;;;;8.28;72.85;97013.59;5093409;28;19963;-69
2023/05/14 03:04:20;;;;;;;;;;;;;;;8.28;72.93;97014.44;5093462;28;19920;-67
2023/05/14 03:06:48;;;;;;;;;;;;;;;8.27;71.49;97010.13;5093320;28;19963;-68
2023/05/14 03:09:15;;;;;;;;;;;;;;;8.41;72.58;97016.78;5093386;28;20290;-67
2023/05/14 03:11:42;;;;;;;;;;;;;;;8.44;72.16;97022.81;5093309;28;19928;-67
2023/05/14 03:14:09;;;;;;;;;;;;;;;8.40;72.00;97020.31;5093413;28;20377;-69
2023/05/14 03:16:36;;;;;;;;;;;;;;;8.46;72.63;97026.22;5093233;28;19920;-68
2023/05/14 03:19:03;;;;;;;;;;;;;;;8.51;74.10;97027.88;5093349;28;19924;-67
2023/05/14 03:21:30;;;;;;;;;;;;;;;8.55;74.21;97026.97;5093288;28;20014;-67
2023/05/14 03:23:59;;;;;;;;;;;;;;;8.61;74.62;97031.19;5093292;28;19920;-70
2023/05/14 03:26:25;;;;;;;;;;;;;;;8.65;74.69;97019.78;5095474;28;19920;-68
2023/05/14 03:28:52;;;;;;;;;;;;;;;8.64;74.07;97018.91;5097125;28;19966;-67
2023/05/14 03:31:19;;;;;;;;;;;;;;;8.66;73.23;97017.13;5097135;28;20116;-66
2023/05/14 03:33:46;;;;;;;;;;;;;;;8.72;72.13;97014.41;5097107;28;19920;-66
2023/05/14 03:36:13;;;;;;;;;;;;;;;8.82;72.22;97014.19;5096995;28;20387;-68
2023/05/14 03:38:42;;;;;;;;;;;;;;;8.91;74.18;97010.50;5097033;28;20010;-69
2023/05/14 03:41:10;;;;;;;;;;;;;;;8.99;74.28;97016.38;5096867;28;19920;-68
2023/05/14 03:43:37;;;;;;;;;;;;;;;9.07;72.57;97018.81;5096950;28;19935;-67
2023/05/14 03:46:04;;;;;;;;;;;;;;;9.19;74.45;97021.13;5096905;28;19963;-67
2023/05/14 03:48:31;;;;;;;;;;;;;;;9.29;74.10;97029.59;5096769;28;19996;-67
2023/05/14 03:50:58;;;;;;;;;;;;;;;9.38;73.52;97028.50;5096767;28;19920;-67
2023/05/14 03:53:25;;;;;;;;;;;;;;;9.51;75.04;97031.63;5096695;28;20083;-68
2023/05/14 03:55:52;;;;;;;;;;;;;;;9.60;74.26;97033.16;5096660;28;19987;-67
2023/05/14 03:58:21;;;;;;;;;;;;;;;9.68;73.93;97040.78;5096659;28;19924;-66
2023/05/14 04:00:47;;;;;;;;;;;;;;;9.76;72.50;97040.59;5096533;28;19920;-68
2023/05/14 04:03:14;;;;;;;;;;;;;;;9.88;70.46;97042.00;5096711;28;19920;-68
2023/05/14 04:05:41;;;;;;;;;;;;;;;10.01;70.53;97037.31;5096415;28;19920;-68
2023/05/14 04:08:08;;;;;;;;;;;;;;;10.13;69.48;97041.31;5096217;28;19924;-69
2023/05/14 04:10:36;;;;;;;;;;;;;;;10.24;69.17;97042.72;5096682;28;19920;-66
2023/05/14 04:13:02;;;;;;;;;;;;;;;10.49;69.78;97042.06;5096326;28;19924;-69
2023/05/14 04:15:31;;;;;;;;;;;;;;;10.77;69.93;97040.34;5096201;28;19919;-69
2023/05/14 04:17:57;;;;;;;;;;;;;;;11.09;71.91;97032.41;5096169;28;19920;-69
2023/05/14 04:20:24;;;;;;;;;;;;;;;11.37;70.60;97031.50;5096174;28;19923;-67
2023/05/14 04:22:52;;;;;;;;;;;;;;;11.79;68.56;97027.44;5096122;28;19920;-68
2023/05/14 04:25:18;;;;;;;;;;;;;;;12.32;65.58;97035.22;5096073;28;19930;-68
2023/05/14 04:27:46;;;;;;;;;;;;;;;12.79;62.15;97033.50;5096129;28;20015;-66
2023/05/14 04:30:14;;;;;;;;;;;;;;;13.03;59.03;97039.53;5095955;28;19994;-66
2023/05/14 04:32:43;;;;;;;;;;;;;;;13.37;59.25;97046.03;5095948;28;20022;-67
2023/05/14 04:35:11;;;;;;;;;;;;;;;13.66;57.78;97045.75;5095862;28;19999;-67
2023/05/14 04:37:39;;;;;;;;;;;;;;;14.01;57.84;97046.03;5095324;28;19971;-67
2023/05/14 04:40:07;;;;;;;;;;;;;;;14.26;55.22;97044.94;5095940;28;19924;-67
2023/05/14 04:42:33;;;;;;;;;;;;;;;14.37;54.78;97044.47;5095557;28;19924;-66
2023/05/14 04:45:01;;;;;;;;;;;;;;;14.28;51.39;97048.38;5095821;28;19974;-67
2023/05/14 04:47:28;;;;;;;;;;;;;;;14.33;53.76;97042.03;5095418;28;19919;-66
2023/05/14 04:49:57;;;;;;;;;;;;;;;14.35;52.87;97048.91;5095621;28;20262;-68
2023/05/14 04:52:25;;;;;;;;;;;;;;;14.38;51.98;97042.66;5095492;28;19923;-67
2023/05/14 04:54:51;;;;;;;;;;;;;;;14.49;51.68;97047.44;5095634;28;19920;-66
2023/05/14 04:57:18;;;;;;;;;;;;;;;14.70;51.32;97045.59;5095473;28;19919;-67
2023/05/14 04:59:45;;;;;;;;;;;;;;;14.90;52.35;97034.16;5095664;28;20369;-67
2023/05/14 05:02:16;;;;;;;;;;;;;;;14.95;51.39;97033.06;5095326;28;19919;-68
2023/05/14 05:04:43;;;;;;;;;;;;;;;15.07;51.28;97029.84;5095295;28;19920;-67
2023/05/14 05:07:13;;;;;;;;;;;;;;;15.26;51.85;97031.59;5095303;28;19967;-67
2023/05/14 05:09:40;;;;;;;;;;;;;;;15.47;51.94;97037.56;5095263;28;19924;-68
2023/05/14 05:12:07;;;;;;;;;;;;;;;15.75;51.45;97053.78;5095434;28;20010;-68
2023/05/14 05:14:34;;;;;;;;;;;;;;;16.03;49.60;97047.13;5095094;28;19920;-68
2023/05/14 05:17:02;;;;;;;;;;;;;;;16.17;45.88;97047.22;5094994;28;19923;-68
2023/05/14 05:19:29;;;;;;;;;;;;;;;16.38;48.60;97054.09;5094987;28;20365;-68
2023/05/14 05:21:56;;;;;;;;;;;;;;;16.47;41.88;97058.91;5095006;28;19971;-67
2023/05/14 05:24:25;;;;;;;;;;;;;;;16.31;41.20;97069.41;5095028;28;19920;-68
2023/05/14 05:26:52;;;;;;;;;;;;;;;16.29;42.13;97077.41;5094978;28;20010;-66
2023/05/14 05:29:19;;;;;;;;;;;;;;;16.14;40.33;97078.22;5094768;28;19920;-67
2023/05/14 05:31:46;;;;;;;;;;;;;;;15.99;41.78;97082.50;5094786;28;19986;-68
2023/05/14 05:34:14;;;;;;;;;;;;;;;15.97;41.80;97084.38;5094858;28;19920;-67
2023/05/14 05:36:41;;;;;;;;;;;;;;;15.99;43.22;97085.16;5094717;28;19930;-68
2023/05/14 05:39:08;;;;;;;;;;;;;;;15.94;41.77;97084.47;5094701;28;20020;-67
2023/05/14 05:41:37;;;;;;;;;;;;;;;15.96;44.10;97082.63;5094659;28;19920;-68
2023/05/14 05:44:06;;;;;;;;;;;;;;;15.95;43.16;97086.22;5094425;28;19920;-67
2023/05/14 05:46:33;;;;;;;;;;;;;;;16.09;47.18;97083.75;5094382;28;19920;-69
2023/05/14 05:49:00;;;;;;;;;;;;;;;16.24;46.29;97091.78;5093439;28;19931;-68
2023/05/14 05:51:28;;;;;;;;;;;;;;;16.47;45.38;97095.00;5094468;28;20381;-68
2023/05/14 05:53:55;;;;;;;;;;;;;;;16.76;44.56;97092.56;5094543;28;20337;-68
2023/05/14 05:56:23;;;;;;;;;;;;;;;16.85;43.36;97089.44;5094390;28;19919;-67
2023/05/14 05:58:51;;;;;;;;;;;;;;;16.99;41.47;97082.53;5094264;28;19923;-68
2023/05/14 06:01:18;;;;;;;;;;;;;;;17.29;42.19;97079.16;5094552;28;19985;-67
2023/05/14 06:03:45;;;;;;;;;;;;;;;17.16;39.92;97094.84;5094232;28;20409;-67
2023/05/14 06:06:15;;;;;;;;;;;;;;;16.70;39.76;97108.78;5094196;28;19920;-68
2023/05/14 06:08:45;;;;;;;;;;;;;;;16.49;40.65;97130.09;5094038;28;19924;-68
2023/05/14 06:11:16;;;;;;;;;;;;;;;16.08;41.32;97112.84;5094126;28;20365;-67
2023/05/14 06:13:45;;;;;;;;;;;;;;;15.89;41.50;97114.59;5093986;28;19920;-67
2023/05/14 06:16:17;;;;;;;;;;;;;;;15.78;42.42;97117.75;5094173;28;19920;-67
2023/05/14 06:18:45;;;;;;;;;;;;;;;15.76;43.93;97103.81;5093996;28;19920;-67
2023/05/14 06:21:19;;;;;;;;;;;;;;;15.70;43.33;97092.72;5093883;28;19920;-66
2023/05/14 06:23:48;;;;;;;;;;;;;;;15.49;42.98;97088.44;5093841;28;19965;-66
2023/05/14 06:26:15;;;;;;;;;;;;;;;15.46;43.94;97093.88;5093777;28;19927;-67
2023/05/14 06:28:42;;;;;;;;;;;;;;;15.32;44.04;97099.78;5093711;28;19920;-67
2023/05/14 06:31:12;;;;;;;;;;;;;;;15.24;44.95;97104.59;5093815;28;20443;-67
2023/05/14 06:33:40;;;;;;;;;;;;;;;15.22;46.31;97102.03;5093749;28;19927;-67
2023/05/14 06:36:08;;;;;;;;;;;;;;;15.07;45.75;97103.63;5093820;28;20007;-67
2023/05/14 06:38:35;;;;;;;;;;;;;;;15.06;46.05;97109.81;5093584;28;19924;-66
2023/05/14 06:41:03;;;;;;;;;;;;;;;15.02;45.98;97100.34;5093691;28;19920;-67
2023/05/14 06:43:30;;;;;;;;;;;;;;;15.10;45.05;97106.09;5093980;28;19920;-67
2023/05/14 06:45:58;;;;;;;;;;;;;;;15.17;44.50;97109.28;5093539;28;19920;-66
2023/05/14 06:48:26;;;;;;;;;;;;;;;15.11;45.31;97110.44;5093270;28;19970;-67
2023/05/14 06:50:55;;;;;;;;;;;;;;;15.31;45.68;97118.31;5093498;28;20007;-67
2023/05/14 06:53:22;;;;;;;;;;;;;;;15.32;44.05;97112.97;5093743;28;19927;-66
2023/05/14 06:55:49;;;;;;;;;;;;;;;15.24;43.81;97120.41;5093489;28;19920;-67
2023/05/14 06:58:16;;;;;;;;;;;;;;;15.05;43.55;97125.69;5093577;28;20007;-67
2023/05/14 07:00:43;;;;;;;;;;;;;;;14.88;44.29;97127.34;5096393;28;19939;-67
2023/05/14 07:03:11;;;;;;;;;;;;;;;14.82;44.99;97139.00;5097693;28;19927;-67
2023/05/14 07:05:39;;;;;;;;;;;;;;;14.82;44.59;97136.38;5097545;28;19970;-66
2023/05/14 07:08:08;;;;;;;;;;;;;;;14.89;45.16;97129.91;5097541;28;20018;-67
2023/05/14 07:10:35;;;;;;;;;;;;;;;14.93;46.36;97132.38;5097620;28;20007;-66
2023/05/14 07:13:03;;;;;;;;;;;;;;;14.82;46.06;97135.50;5097584;28;20011;-67
2023/05/14 07:15:30;;;;;;;;;;;;;;;14.89;46.00;97134.28;5097787;28;19937;-66
2023/05/14 07:17:57;;;;;;;;;;;;;;;14.76;47.10;97136.63;5097372;28;19950;-67
2023/05/14 07:20:28;;;;;;;;;;;;;;;14.78;46.89;97146.19;5097307;28;19978;-67
2023/05/14 07:22:55;;;;;;;;;;;;;;;14.75;48.01;97148.09;5097244;28;19963;-67
2023/05/14 07:25:26;;;;;;;;;;;;;;;14.73;47.71;97156.06;5097226;28;19920;-67
2023/05/14 07:27:54;;;;;;;;;;;;;;;14.74;47.76;97151.63;5097184;28;19972;-67
2023/05/14 07:30:21;;;;;;;;;;;;;;;14.76;48.74;97160.31;5096661;28;19920;-67
2023/05/14 07:32:47;;;;;;;;;;;;;;;14.91;48.04;97154.38;5097065;28;20010;-66
2023/05/14 07:35:15;;;;;;;;;;;;;;;15.01;48.75;97154.81;5096985;28;19942;-67
2023/05/14 07:37:45;;;;;;;;;;;;;;;14.96;46.81;97161.22;5096985;28;19931;-67
2023/05/14 07:40:12;;;;;;;;;;;;;;;14.90;46.09;97157.94;5096927;28;20010;-66
2023/05/14 07:42:41;;;;;;;;;;;;;;;14.98;46.69;97165.50;5096957;28;19926;-67
2023/05/14 07:45:10;;;;;;;;;;;;;;;14.99;45.42;97169.00;5096901;28;19920;-67
2023/05/14 07:47:37;;;;;;;;;;;;;;;14.82;45.26;97167.13;5096663;28;20370;-67
2023/05/14 07:50:04;;;;;;;;;;;;;;;14.78;47.32;97169.88;5096687;28;19924;-67
2023/05/14 07:52:32;;;;;;;;;;;;;;;14.78;47.42;97169.88;5097007;28;19966;-67
2023/05/14 07:55:00;;;;;;;;;;;;;;;14.86;47.05;97176.56;5096618;28;19942;-66
2023/05/14 07:57:28;;;;;;;;;;;;;;;14.90;47.34;97162.38;5096552;28;19920;-66
2023/05/14 07:59:57;;;;;;;;;;;;;;;14.86;46.75;97168.69;5096666;28;19920;-66
2023/05/14 08:02:24;;;;;;;;;;;;;;;14.86;46.90;97166.91;5096616;28;19920;-67
2023/05/14 08:04:51;;;;;;;;;;;;;;;14.85;47.16;97153.81;5096469;28;19927;-67
2023/05/14 08:07:21;;;;;;;;;;;;;;;14.63;46.98;97163.50;5096476;28;19967;-67
2023/05/14 08:09:48;;;;;;;;;;;;;;;14.46;47.73;97166.03;5096381;28;19919;-67
2023/05/14 08:12:15;;;;;;;;;;;;;;;14.45;48.63;97164.31;5095442;28;19924;-66
2023/05/14 08:14:46;;;;;;;;;;;;;;;14.42;48.99;97164.44;5096453;28;19927;-66
2023/05/14 08:17:18;;;;;;;;;;;;;;;14.45;50.32;97172.22;5096319;28;20369;-66
2023/05/14 08:19:45;;;;;;;;;;;;;;;14.38;48.39;97168.97;5096239;28;19920;-66
2023/05/14 08:22:13;;;;;;;;;;;;;;;14.37;48.99;97168.16;5096194;28;19920;-67
2023/05/14 08:24:41;;;;;;;;;;;;;;;14.33;49.17;97171.81;5096186;28;19920;-67
2023/05/14 08:27:08;;;;;;;;;;;;;;;14.33;50.84;97166.53;5096062;28;19920;-66
2023/05/14 08:29:35;;;;;;;;;;;;;;;14.32;51.01;97166.63;5095891;28;19928;-66
2023/05/14 08:32:02;;;;;;;;;;;;;;;14.37;50.71;97170.78;5095858;28;19927;-67
2023/05/14 08:34:33;;;;;;;;;;;;;;;14.43;51.39;97168.78;5095922;28;19920;-66
2023/05/14 08:37:00;;;;;;;;;;;;;;;14.51;51.77;97164.88;5095625;28;20392;-66
2023/05/14 08:39:27;;;;;;;;;;;;;;;14.50;50.41;97162.31;5095765;28;19970;-65
2023/05/14 08:41:55;;;;;;;;;;;;;;;14.46;50.42;97158.13;5095794;28;19924;-66
2023/05/14 08:44:29;;;;;;;;;;;;;;;14.39;51.07;97165.44;5095227;28;19927;-66
2023/05/14 08:46:56;;;;;;;;;;;;;;;14.50;51.38;97167.59;5095702;28;19920;-60
2023/05/14 08:49:31;;;;;;;;;;;;;;;14.74;51.25;97170.91;5095171;28;20002;-61
2023/05/14 08:52:03;;;;;;;;;;;;;;;14.89;50.61;97192.25;5095812;28;20012;-61
2023/05/14 08:54:31;;;;;;;;;;;;;;;15.07;51.09;97187.91;5095443;28;20293;-61
2023/05/14 08:56:59;;;;;;;;;;;;;;;15.20;49.89;97193.47;5095861;28;19967;-61
2023/05/14 08:59:25;;;;;;;;;;;;;;;15.29;50.00;97198.31;5095413;28;19965;-61
2023/05/14 09:01:54;;;;;;;;;;;;;;;15.18;48.91;97207.66;5095329;28;19920;-61
2023/05/14 09:04:22;;;;;;;;;;;;;;;15.19;48.97;97214.63;5095120;28;19998;-61
2023/05/14 09:06:50;;;;;;;;;;;;;;;15.14;49.83;97202.53;5095541;28;19920;-61
2023/05/14 09:09:21;;;;;;;;;;;;;;;15.12;52.15;97208.78;5095540;28;19962;-60
2023/05/14 09:11:49;;;;;;;;;;;;;;;15.13;53.69;97202.59;5095390;28;19920;-61
2023/05/14 09:14:16;;;;;;;;;;;;;;;15.08;55.78;97205.44;5092844;28;19942;-61
2023/05/14 09:16:44;;;;;;;;;;;;;;;15.06;58.17;97216.97;5083412;28;19950;-60
2023/05/14 09:19:14;;;;;;;;;;;;;;;14.99;59.73;97211.16;5079990;28;19920;-60
2023/05/14 09:21:42;;;;;;;;;;;;;;;14.91;60.91;97214.94;5074807;28;19924;-60
2023/05/14 09:24:18;;;;;;;;;;;;;;;14.85;62.30;97207.34;5074602;28;20006;-61
2023/05/14 09:26:50;;;;;;;;;;;;;;;14.84;65.58;97216.16;5080045;28;19920;-60
2023/05/14 09:29:20;;;;;;;;;;;;;;;14.77;64.51;97218.19;5074103;28;19924;-60
2023/05/14 09:31:49;;;;;;;;;;;;;;;14.73;64.27;97207.84;5073727;28;19924;-60
2023/05/14 09:34:23;;;;;;;;;;;;;;;14.70;66.93;97208.00;5074496;28;20263;-60
2023/05/14 09:36:50;;;;;;;;;;;;;;;14.66;66.78;97202.00;5074579;28;19966;-58
2023/05/14 09:39:18;;;;;;;;;;;;;;;14.58;68.05;97191.81;5074073;28;20332;-58
2023/05/14 09:41:45;;;;;;;;;;;;;;;14.55;68.90;97194.59;5074235;28;19920;-58
2023/05/14 09:44:13;;;;;;;;;;;;;;;14.59;69.65;97192.66;5074266;28;19928;-58
2023/05/14 09:46:42;;;;;;;;;;;;;;;14.52;70.99;97192.09;5073335;28;19920;-58
2023/05/14 09:49:09;;;;;;;;;;;;;;;14.45;72.40;97183.59;5073580;28;19924;-58
2023/05/14 09:51:37;;;;;;;;;;;;;;;14.39;72.92;97182.06;5073412;28;19927;-58
2023/05/14 09:54:05;;;;;;;;;;;;;;;14.26;72.55;97173.88;5073740;28;19927;-58
2023/05/14 09:56:33;;;;;;;;;;;;;;;14.22;73.98;97171.44;5074060;28;19924;-58
2023/05/14 09:59:01;;;;;;;;;;;;;;;14.18;73.74;97151.44;5074078;28;19921;-58
2023/05/14 10:01:31;;;;;;;;;;;;;;;14.20;74.49;97149.56;5073591;28;19920;-58
2023/05/14 10:03:59;;;;;;;;;;;;;;;14.24;74.79;97149.38;5073983;28;20016;-58
2023/05/14 10:06:28;;;;;;;;;;;;;;;14.36;75.60;97150.63;5074206;28;19982;-58
2023/05/14 10:08:56;;;;;;;;;;;;;;;14.24;70.18;97144.13;5073347;28;20359;-58
2023/05/14 10:11:25;;;;;;;;;;;;;;;14.12;71.58;97140.25;5073933;28;19976;-58
2023/05/14 10:13:57;;;;;;;;;;;;;;;14.12;72.94;97136.78;5073992;28;20329;-58
2023/05/14 10:16:30;;;;;;;;;;;;;;;14.06;70.39;97139.66;5073900;28;19931;-58
2023/05/14 10:19:01;;;;;;;;;;;;;;;13.97;71.43;97133.84;5072673;28;19920;-58
2023/05/14 10:21:32;;;;;;;;;;;;;;;13.82;70.92;97122.19;5073767;28;19974;-58
2023/05/14 10:23:59;;;;;;;;;;;;;;;13.78;70.91;97112.75;5073439;28;19920;-57
2023/05/14 10:26:26;;;;;;;;;;;;;;;13.85;72.47;97124.72;5080687;28;19921;-56
2023/05/14 10:28:54;;;;;;;;;;;;;;;13.98;73.51;97130.31;5091948;28;19920;-58
2023/05/14 10:31:45;;;;;;;;;;;;;;;14.11;72.99;97130.66;5073207;28;19920;-58
2023/05/14 10:34:26;;;;;;;;;;;;;;;14.15;70.74;97119.06;5071936;28;19920;-58
2023/05/14 10:36:59;;;;;;;;;;;;;;;14.21;68.31;97125.84;5073253;28;19967;-58
2023/05/14 10:39:42;;;;;;;;;;;;;;;14.23;68.70;97138.91;5073559;28;20011;-58
2023/05/14 10:42:11;;;;;;;;;;;;;;;14.20;67.39;97133.78;5073454;28;20370;-58
2023/05/14 10:44:42;;;;;;;;;;;;;;;14.28;67.78;97124.66;5073484;28;19920;-59
2023/05/14 10:47:09;;;;;;;;;;;;;;;14.35;69.54;97105.94;5073180;28;19960;-58
2023/05/14 10:49:38;;;;;;;;;;;;;;;14.26;67.97;97112.47;5073558;28;19966;-58
2023/05/14 10:52:13;;;;;;;;;;;;;;;14.36;71.21;97118.22;5073339;28;20289;-58
2023/05/14 10:54:41;;;;;;;;;;;;;;;14.38;68.91;97111.94;5073217;28;19920;-58
2023/05/14 10:57:12;;;;;;;;;;;;;;;14.48;70.22;97108.91;5073209;28;19951;-58
2023/05/14 10:59:42;;;;;;;;;;;;;;;14.47;69.62;97092.25;5073222;28;20408;-58
2023/05/14 11:02:20;;;;;;;;;;;;;;;14.48;69.96;97099.22;5073259;28;19920;-58
2023/05/14 11:05:01;;;;;;;;;;;;;;;14.55;67.96;97101.56;5073269;28;19920;-58
2023/05/14 11:07:32;;;;;;;;;;;;;;;14.66;67.15;97086.16;5073276;28;19924;-57
2023/05/14 11:10:21;;;;;;;;;;;;;;;14.65;66.97;97087.94;5073127;28;20362;-58
2023/05/14 11:12:49;;;;;;;;;;;;;;;14.61;67.59;97096.03;5073093;28;20392;-58
2023/05/14 11:15:17;;;;;;;;;;;;;;;14.60;68.83;97110.13;5073223;28;19927;-57
2023/05/14 11:17:47;;;;;;;;;;;;;;;14.71;67.15;97104.34;5073200;28;19977;-58
2023/05/14 11:20:15;;;;;;;;;;;;;;;14.81;67.77;97105.69;5072814;28;19924;-58
2023/05/14 11:22:46;;;;;;;;;;;;;;;14.85;65.09;97101.13;5073111;28;19975;-58
2023/05/14 11:25:24;;;;;;;;;;;;;;;14.91;67.77;97096.41;5073145;28;19962;-58
2023/05/14 11:27:59;;;;;;;;;;;;;;;14.95;63.73;97099.78;5072970;28;19995;-58
2023/05/14 11:30:32;;;;;;;;;;;;;;;14.94;60.73;97103.34;5072874;28;19920;-58
2023/05/14 11:32:59;;;;;;;;;;;;;;;14.87;61.02;97088.75;5073135;28;19974;-58
2023/05/14 11:35:28;;;;;;;;;;;;;;;14.83;60.22;97088.03;5072919;28;19924;-58
2023/05/14 11:38:06;;;;;;;;;;;;;;;14.93;63.50;97091.09;5072887;28;20038;-57
2023/05/14 11:40:33;;;;;;;;;;;;;;;14.98;62.65;97080.34;5072752;28;19921;-59
2023/05/14 11:43:03;;;;;;;;;;;;;;;15.08;67.94;97068.44;5072856;28;20352;-58
2023/05/14 11:45:32;;;;;;;;;;;;;;;15.09;64.33;97066.66;5072965;28;20359;-58
2023/05/14 11:48:02;;;;;;;;;;;;;;;15.10;64.24;97063.09;5075712;28;19928;-58
2023/05/14 11:50:40;;;;;;;;;;;;;;;14.99;60.95;97068.88;5076441;28;19972;-58
2023/05/14 11:53:12;;;;;;;;;;;;;;;15.00;60.85;97055.66;5075714;28;20362;-58
2023/05/14 11:55:41;;;;;;;;;;;;;;;14.96;60.94;97055.88;5076381;28;19921;-58
2023/05/14 11:58:12;;;;;;;;;;;;;;;15.03;66.22;97066.00;5076253;28;20007;-58
2023/05/14 12:00:41;;;;;;;;;;;;;;;15.00;64.40;97068.81;5076357;28;19920;-58
2023/05/14 12:03:29;;;;;;;;;;;;;;;;;;;;;
2023/05/14 12:05:58;;;;;;;;;;;;;;;14.96;62.52;97055.88;5075990;28;19921;-58
2023/05/14 12:08:31;;;;;;;;;;;;;;;14.86;63.58;97053.66;5076253;28;19950;-59
2023/05/14 12:10:58;;;;;;;;;;;;;;;14.81;64.03;97063.53;5076214;28;20294;-60
2023/05/14 12:13:35;;;;;;;;;;;;;;;14.73;63.38;97052.50;5076038;28;19921;-58
2023/05/14 12:16:06;;;;;;;;;;;;;;;14.66;63.34;97044.03;5076032;28;20018;-60
2023/05/14 12:18:47;;;;;;;;;;;;;;;14.70;65.98;97047.38;5076027;28;19979;-59
2023/05/14 12:21:17;;;;;;;;;;;;;;;14.69;67.50;97062.31;5075408;28;19921;-59
2023/05/14 12:23:47;;;;;;;;;;;;;;;14.70;65.37;97069.28;5076170;28;20041;-59
2023/05/14 12:29:17;;;;;;;;;;;;;;;14.51;68.42;97025.38;5152780;27;19919;-57
2023/05/14 12:31:53;;;;;;;;;;;;;;;14.35;70.37;97043.66;5152486;27;20270;-58
2023/05/14 12:34:20;;;;;;;;;;;;;;;14.26;70.97;97046.69;5152502;27;19923;-59
2023/05/14 12:36:49;;;;;;;;;;;;;;;14.26;70.73;97039.66;5152440;27;20006;-59
2023/05/14 12:39:18;;;;;;;;;;;;;;;14.26;70.68;97055.47;5152460;27;20400;-59
2023/05/14 12:41:47;;;;;;;;;;;;;;;14.28;71.12;97058.03;5152334;27;19924;-58
2023/05/14 12:44:21;;;;;;;;;;;;;;;14.26;71.63;97058.09;5152291;27;19954;-59
2023/05/14 12:46:50;;;;;;;;;;;;;;;14.27;73.07;97046.63;5152256;27;19927;-59
2023/05/14 12:49:28;;;;;;;;;;;;;;;14.32;73.07;97035.91;5151667;27;19947;-59
2023/05/14 12:52:10;;;;;;;;;;;;;;;14.41;73.52;97037.25;5152193;27;19977;-59
2023/05/14 12:54:41;;;;;;;;;;;;;;;14.54;72.52;97029.63;5152084;27;20002;-59
2023/05/14 12:57:16;;;;;;;;;;;;;;;14.59;69.55;97026.78;5152111;27;19930;-59
2023/05/14 12:59:45;;;;;;;;;;;;;;;14.65;68.39;97026.53;5152066;27;20373;-59
2023/05/14 13:02:12;;;;;;;;;;;;;;;14.76;69.56;97024.25;5152183;27;19969;-59